createdAt,value
2017-08-28T00:00:17.046Z,14.17
2017-08-28T00:05:03.694Z,14.83
2017-08-28T00:09:50.372Z,13.50
2017-08-28T00:14:36.983Z,13.37
2017-08-28T00:19:23.618Z,13.63
2017-08-28T00:24:10.319Z,15.03
2017-08-28T00:28:56.990Z,14.50
2017-08-28T00:33:43.679Z,13.23
2017-08-28T00:38:30.645Z,13.00
2017-08-28T00:43:17.340Z,13.10
2017-08-28T00:48:03.983Z,13.93
2017-08-28T00:52:50.633Z,15.50
2017-08-28T00:57:37.267Z,15.03
2017-08-28T01:02:23.895Z,18.57
2017-08-28T01:07:10.548Z,18.03
2017-08-28T01:11:57.695Z,16.33
2017-08-28T01:16:44.313Z,15.77
2017-08-28T01:21:30.974Z,16.23
2017-08-28T01:26:17.757Z,16.60
2017-08-28T01:31:04.393Z,16.60
2017-08-28T01:35:51.017Z,16.10
2017-08-28T01:40:37.712Z,17.70
2017-08-28T01:45:24.814Z,18.07
2017-08-28T01:50:11.453Z,16.63
2017-08-28T01:54:58.113Z,16.27
2017-08-28T01:59:44.763Z,19.40
2017-08-28T02:04:31.420Z,15.87
2017-08-28T02:09:18.074Z,16.00
2017-08-28T02:14:04.716Z,16.00
2017-08-28T02:18:51.659Z,16.27
2017-08-28T02:23:38.281Z,15.40
2017-08-28T02:28:24.905Z,15.90
2017-08-28T02:33:11.732Z,16.47
2017-08-28T02:37:58.350Z,14.77
2017-08-28T02:42:45.000Z,16.03
2017-08-28T02:47:31.648Z,16.53
2017-08-28T02:52:18.290Z,17.50
2017-08-28T02:57:05.033Z,16.27
2017-08-28T03:01:51.756Z,16.50
2017-08-28T03:06:38.494Z,15.17
2017-08-28T03:11:25.207Z,13.97
2017-08-28T03:16:12.134Z,15.53
2017-08-28T03:20:58.837Z,16.10
2017-08-28T03:25:45.911Z,17.07
2017-08-28T03:30:32.591Z,15.20
2017-08-28T03:35:19.565Z,16.60
2017-08-28T03:40:06.169Z,19.03
2017-08-28T03:44:52.811Z,16.13
2017-08-28T03:49:39.449Z,15.90
2017-08-28T03:54:26.089Z,15.77
2017-08-28T03:59:12.737Z,15.30
2017-08-28T04:03:59.337Z,16.80
2017-08-28T04:08:45.995Z,17.10
2017-08-28T04:13:32.646Z,17.97
2017-08-28T04:18:19.282Z,17.53
2017-08-28T04:23:05.960Z,18.03
2017-08-28T04:27:52.613Z,16.70
2017-08-28T04:32:39.252Z,17.83
2017-08-28T04:37:26.192Z,19.47
2017-08-28T04:42:12.850Z,17.37
2017-08-28T04:46:59.505Z,16.63
2017-08-28T04:51:46.137Z,15.60
2017-08-28T04:56:32.849Z,15.53
2017-08-28T05:01:19.604Z,17.57
2017-08-28T05:06:06.355Z,16.90
2017-08-28T05:10:52.994Z,18.70
2017-08-28T05:15:39.585Z,19.70
2017-08-28T05:20:26.357Z,18.07
2017-08-28T05:25:13.027Z,19.13
2017-08-28T05:29:59.981Z,18.40
2017-08-28T05:34:46.630Z,18.50
2017-08-28T05:39:33.418Z,19.80
2017-08-28T05:44:20.071Z,17.70
2017-08-28T05:49:06.752Z,16.97
2017-08-28T05:53:53.567Z,16.10
2017-08-28T05:58:40.234Z,18.70
2017-08-28T06:03:27.253Z,17.03
2017-08-28T06:08:13.881Z,16.17
2017-08-28T06:13:00.567Z,16.47
2017-08-28T06:17:47.213Z,17.60
2017-08-28T06:22:33.847Z,18.50
2017-08-28T06:27:20.501Z,19.53
2017-08-28T06:32:07.134Z,18.43
2017-08-28T06:36:53.762Z,19.37
2017-08-28T06:41:40.752Z,18.67
2017-08-28T06:46:27.398Z,19.23
2017-08-28T06:51:14.037Z,15.80
2017-08-28T06:56:00.656Z,16.60
2017-08-28T07:00:47.298Z,16.57
2017-08-28T07:05:33.940Z,19.13
2017-08-28T07:10:20.970Z,18.70
2017-08-28T07:15:07.590Z,17.13
2017-08-28T07:19:54.235Z,17.03
2017-08-28T07:24:40.850Z,18.10
2017-08-28T07:29:27.471Z,17.57
2017-08-28T07:34:15.893Z,18.30
2017-08-28T07:39:02.540Z,17.07
2017-08-28T07:43:49.193Z,18.30
2017-08-28T07:48:35.831Z,21.43
2017-08-28T07:53:22.777Z,23.20
2017-08-28T07:58:09.394Z,22.83
2017-08-28T08:02:56.630Z,22.83
2017-08-28T08:07:43.263Z,23.37
2017-08-28T08:12:29.919Z,29.03
2017-08-28T08:17:16.552Z,25.80
2017-08-28T08:22:03.167Z,24.77
2017-08-28T08:26:49.789Z,25.90
2017-08-28T08:31:36.762Z,27.17
2017-08-28T08:36:23.385Z,27.50
2017-08-28T08:41:10.024Z,27.97
2017-08-28T08:45:56.625Z,23.80
2017-08-28T08:50:43.345Z,24.77
2017-08-28T08:55:30.289Z,25.77
2017-08-28T09:00:16.897Z,25.10
2017-08-28T09:05:03.533Z,26.77
2017-08-28T09:09:50.245Z,23.33
2017-08-28T09:14:37.361Z,25.37
2017-08-28T09:19:24.238Z,24.33
2017-08-28T09:24:11.183Z,25.63
2017-08-28T09:28:57.854Z,23.67
2017-08-28T09:33:44.498Z,22.00
2017-08-28T09:38:31.172Z,22.73
2017-08-28T09:43:17.845Z,21.20
2017-08-28T09:48:04.785Z,19.87
2017-08-28T09:52:51.412Z,24.17
2017-08-28T09:57:38.321Z,21.47
2017-08-28T10:02:24.940Z,20.13
2017-08-28T10:07:11.617Z,21.73
2017-08-28T10:11:58.253Z,19.80
2017-08-28T10:16:44.900Z,17.43
2017-08-28T10:21:31.561Z,19.20
2017-08-28T10:26:18.226Z,21.63
2017-08-28T10:31:04.850Z,22.43
2017-08-28T10:35:51.477Z,23.47
2017-08-28T10:40:38.336Z,27.07
2017-08-28T10:45:25.008Z,25.40
2017-08-28T10:50:12.566Z,26.20
2017-08-28T10:54:59.236Z,30.70
2017-08-28T10:59:45.904Z,26.40
2017-08-28T11:04:32.608Z,37.07
2017-08-28T11:09:19.278Z,39.90
2017-08-28T11:14:05.961Z,41.70
2017-08-28T11:18:52.589Z,33.83
2017-08-28T11:23:39.337Z,35.50
2017-08-28T11:28:26.302Z,33.20
2017-08-28T11:33:12.922Z,32.50
2017-08-28T11:37:59.605Z,36.17
2017-08-28T11:42:46.251Z,30.60
2017-08-28T11:47:32.916Z,26.53
2017-08-28T11:52:19.582Z,24.27
2017-08-28T11:57:06.219Z,28.30
2017-08-28T12:01:53.145Z,27.07
2017-08-28T12:06:39.772Z,27.90
2017-08-28T12:11:26.425Z,26.63
2017-08-28T12:16:13.068Z,18.87
2017-08-28T12:20:59.698Z,24.27
2017-08-28T12:25:46.336Z,25.60
2017-08-28T12:30:32.974Z,20.20
2017-08-28T12:35:20.005Z,17.83
2017-08-28T12:40:06.656Z,22.70
2017-08-28T12:44:53.293Z,22.30
2017-08-28T12:49:39.921Z,19.37
2017-08-28T12:54:26.554Z,19.97
2017-08-28T12:59:13.193Z,18.53
2017-08-28T13:04:00.123Z,17.90
2017-08-28T13:08:46.812Z,20.03
2017-08-28T13:13:33.577Z,16.50
2017-08-28T13:18:20.232Z,15.40
2017-08-28T13:23:06.933Z,15.00
2017-08-28T13:27:53.590Z,11.90
2017-08-28T13:32:40.262Z,12.37
2017-08-28T13:37:26.939Z,12.33
2017-08-28T13:42:13.874Z,12.83
2017-08-28T13:47:00.466Z,13.87
2017-08-28T13:51:47.103Z,12.37
2017-08-28T13:56:33.726Z,13.83
2017-08-28T14:01:20.401Z,13.70
2017-08-28T14:06:07.078Z,12.93
2017-08-28T14:10:53.739Z,13.63
2017-08-28T14:15:40.504Z,12.87
2017-08-28T14:20:27.459Z,14.80
2017-08-28T14:25:14.170Z,14.23
2017-08-28T14:30:00.869Z,12.87
2017-08-28T14:34:47.607Z,12.80
2017-08-28T14:39:34.538Z,13.07
2017-08-28T14:44:21.250Z,11.47
2017-08-28T14:49:08.037Z,11.33
2017-08-28T14:53:55.370Z,12.70
2017-08-28T14:58:42.157Z,12.90
2017-08-28T15:03:28.888Z,11.40
2017-08-28T15:08:15.541Z,12.90
2017-08-28T15:13:02.245Z,13.30
2017-08-28T15:17:49.717Z,14.43
2017-08-28T15:22:36.379Z,14.60
2017-08-28T15:27:23.043Z,13.33
2017-08-28T15:32:09.735Z,13.93
2017-08-28T15:36:56.481Z,12.53
2017-08-28T15:41:43.141Z,12.47
2017-08-28T15:46:29.786Z,12.70
2017-08-28T15:51:16.421Z,12.83
2017-08-28T15:56:03.214Z,13.70
2017-08-28T16:00:50.008Z,14.63
2017-08-28T16:05:36.722Z,13.50
2017-08-28T16:10:24.133Z,12.87
2017-08-28T16:15:10.742Z,12.60
2017-08-28T16:19:57.391Z,12.10
2017-08-28T16:24:43.998Z,13.33
2017-08-28T16:29:30.643Z,12.80
2017-08-28T16:34:17.292Z,12.63
2017-08-28T16:39:03.904Z,12.13
2017-08-28T16:43:50.617Z,9.80
2017-08-28T16:48:37.265Z,11.87
2017-08-28T16:53:24.274Z,10.67
2017-08-28T16:58:10.980Z,10.90
2017-08-28T17:02:57.597Z,9.30
2017-08-28T17:07:44.351Z,11.47
2017-08-28T17:12:30.989Z,10.47
2017-08-28T17:17:17.901Z,11.50
2017-08-28T17:22:05.452Z,11.33
2017-08-28T17:26:52.097Z,10.90
2017-08-28T17:31:39.142Z,9.13
2017-08-28T17:36:25.760Z,9.63
2017-08-28T17:41:12.851Z,10.47
2017-08-28T17:45:59.559Z,8.87
2017-08-28T17:50:46.257Z,10.70
2017-08-28T17:55:32.996Z,10.63
2017-08-28T18:00:19.651Z,9.83
2017-08-28T18:05:06.650Z,9.37
2017-08-28T18:09:55.094Z,10.93
2017-08-28T18:14:43.606Z,9.33
2017-08-28T18:19:30.278Z,10.47
2017-08-28T18:24:16.925Z,10.37
2017-08-28T18:29:03.550Z,12.10
2017-08-28T18:33:50.623Z,11.03
2017-08-28T18:38:37.244Z,12.90
2017-08-28T18:43:23.908Z,10.33
2017-08-28T18:48:10.623Z,10.70
2017-08-28T18:52:57.242Z,12.00
2017-08-28T18:57:43.892Z,10.67
2017-08-28T19:02:31.176Z,10.97
2017-08-28T19:07:17.854Z,12.20
2017-08-28T19:12:04.554Z,12.37
2017-08-28T19:16:51.252Z,12.03
2017-08-28T19:21:38.033Z,11.57
2017-08-28T19:26:24.737Z,11.77
2017-08-28T19:31:11.490Z,11.87
2017-08-28T19:35:58.234Z,12.37
2017-08-28T19:40:45.032Z,12.83
2017-08-28T19:45:31.701Z,14.63
2017-08-28T19:50:18.519Z,13.23
2017-08-28T19:55:05.396Z,11.90
2017-08-28T19:59:52.086Z,14.73
2017-08-28T20:04:39.122Z,15.27
2017-08-28T20:09:25.784Z,15.77
2017-08-28T20:14:12.475Z,14.97
2017-08-28T20:18:59.442Z,16.70
2017-08-28T20:23:46.149Z,14.87
2017-08-28T20:28:32.938Z,16.70
2017-08-28T20:33:19.938Z,16.03
2017-08-28T20:38:07.025Z,15.63
2017-08-28T20:42:53.748Z,15.30
2017-08-28T20:47:40.469Z,15.90
2017-08-28T20:52:27.146Z,16.17
2017-08-28T20:57:13.798Z,18.50
2017-08-28T21:02:00.431Z,17.37
2017-08-28T21:06:47.474Z,17.50
2017-08-28T21:11:34.192Z,16.47
2017-08-28T21:16:20.821Z,16.63
2017-08-28T21:21:07.453Z,18.20
2017-08-28T21:25:54.094Z,18.70
2017-08-28T21:30:40.742Z,17.80
2017-08-28T21:35:27.568Z,18.30
2017-08-28T21:40:14.381Z,18.20
2017-08-28T21:45:01.461Z,19.07
2017-08-28T21:49:48.168Z,17.10
2017-08-28T21:54:34.840Z,18.67
2017-08-28T21:59:22.035Z,17.67
2017-08-28T22:04:08.683Z,17.87
2017-08-28T22:08:55.631Z,20.07
2017-08-28T22:13:42.278Z,18.40
2017-08-28T22:18:30.038Z,19.20
2017-08-28T22:23:16.838Z,19.93
2017-08-28T22:28:03.582Z,20.23
2017-08-28T22:32:50.229Z,19.27
2017-08-28T22:37:36.886Z,18.07
2017-08-28T22:42:23.534Z,19.23
2017-08-28T22:47:10.473Z,19.33
2017-08-28T22:51:57.082Z,19.33
2017-08-28T22:56:43.737Z,21.90
2017-08-28T23:01:30.442Z,21.97
2017-08-28T23:06:17.680Z,21.63
2017-08-28T23:11:04.349Z,21.37
2017-08-28T23:15:50.997Z,20.70
2017-08-28T23:20:37.628Z,22.57
2017-08-28T23:25:24.248Z,22.47
2017-08-28T23:30:10.894Z,20.90
2017-08-28T23:34:57.593Z,20.03
2017-08-28T23:39:44.225Z,21.40
2017-08-28T23:44:31.354Z,22.30
2017-08-28T23:49:18.042Z,21.70
2017-08-28T23:54:04.796Z,22.73
2017-08-28T23:58:51.417Z,19.50
